createdAt,value
2023-02-07T00:01:01.376Z,95.72
2023-02-07T00:02:02.729Z,96.57
2023-02-07T00:03:04.097Z,96.14
2023-02-07T00:04:05.427Z,94.84
2023-02-07T00:05:07.021Z,95.27
2023-02-07T00:06:16.421Z,95.95
2023-02-07T00:07:17.678Z,95.28
2023-02-07T00:08:18.915Z,94.87
2023-02-07T00:09:20.123Z,95.85
2023-02-07T00:10:21.458Z,96.03
2023-02-07T00:11:23.331Z,95.93
2023-02-07T00:12:24.600Z,96.17
2023-02-07T00:13:25.787Z,96.43
2023-02-07T00:14:27.020Z,94.73
2023-02-07T00:15:29.007Z,95.60
2023-02-07T00:16:30.284Z,96.53
2023-02-07T00:17:31.504Z,96.02
2023-02-07T00:18:33.160Z,94.70
2023-02-07T00:19:34.470Z,94.18
2023-02-07T00:20:35.663Z,94.57
2023-02-07T00:21:37.154Z,93.71
2023-02-07T00:22:38.419Z,93.94
2023-02-07T00:23:40.017Z,94.94
2023-02-07T00:24:41.263Z,94.87
2023-02-07T00:25:45.308Z,94.77
2023-02-07T00:26:46.565Z,94.96
2023-02-07T00:27:47.914Z,94.75
2023-02-07T00:28:49.896Z,94.84
2023-02-07T00:29:51.158Z,95.63
2023-02-07T00:31:02.210Z,93.41
2023-02-07T00:32:03.606Z,93.99
2023-02-07T00:33:04.873Z,95.09
2023-02-07T00:34:06.920Z,94.97
2023-02-07T00:35:08.330Z,94.80
2023-02-07T00:36:11.759Z,95.00
2023-02-07T00:37:13.041Z,93.88
2023-02-07T00:38:14.245Z,94.23
2023-02-07T00:39:16.465Z,95.11
2023-02-07T00:40:18.415Z,93.93
2023-02-07T00:41:19.664Z,94.10
2023-02-07T00:42:20.898Z,93.86
2023-02-07T00:43:29.585Z,94.51
2023-02-07T00:44:31.644Z,94.88
2023-02-07T00:45:32.952Z,95.91
2023-02-07T00:46:34.799Z,96.69
2023-02-07T00:47:36.021Z,96.71
2023-02-07T00:48:37.283Z,96.15
2023-02-07T00:49:38.529Z,95.46
2023-02-07T00:50:39.805Z,96.30
2023-02-07T00:51:41.083Z,96.83
2023-02-07T00:52:42.297Z,96.26
2023-02-07T00:53:43.756Z,95.95
2023-02-07T00:54:44.952Z,96.34
2023-02-07T00:55:46.952Z,95.96
2023-02-07T00:56:48.143Z,97.16
2023-02-07T00:57:49.318Z,97.51
2023-02-07T00:58:51.141Z,96.65
2023-02-07T00:59:52.395Z,96.73
2023-02-07T01:00:53.703Z,96.53
2023-02-07T01:01:54.932Z,96.22
2023-02-07T01:02:56.201Z,95.11
2023-02-07T01:03:57.666Z,95.84
2023-02-07T01:04:58.930Z,96.33
2023-02-07T01:06:00.191Z,95.85
2023-02-07T01:07:01.487Z,95.91
2023-02-07T01:08:03.903Z,95.54
2023-02-07T01:09:05.507Z,95.08
2023-02-07T01:10:07.157Z,95.12
2023-02-07T01:11:10.546Z,95.16
2023-02-07T01:12:13.049Z,95.62
2023-02-07T01:13:15.107Z,95.39
2023-02-07T01:14:16.434Z,95.15
2023-02-07T01:15:18.578Z,94.42
2023-02-07T01:16:22.469Z,95.28
2023-02-07T01:17:24.305Z,95.83
2023-02-07T01:18:25.777Z,94.97
2023-02-07T01:19:27.016Z,94.92
2023-02-07T01:20:28.787Z,95.26
2023-02-07T01:21:30.045Z,94.24
2023-02-07T01:22:31.319Z,95.09
2023-02-07T01:23:32.573Z,94.84
2023-02-07T01:24:35.510Z,94.54
2023-02-07T01:25:37.993Z,95.12
2023-02-07T01:26:39.841Z,94.70
2023-02-07T01:27:41.586Z,94.26
2023-02-07T01:28:43.206Z,95.31
2023-02-07T01:29:46.392Z,94.96
2023-02-07T01:30:47.656Z,95.63
2023-02-07T01:31:49.214Z,95.96
2023-02-07T01:32:50.574Z,96.37
2023-02-07T01:33:55.818Z,96.51
2023-02-07T01:34:57.096Z,96.53
2023-02-07T01:35:58.383Z,96.58
2023-02-07T01:36:59.639Z,95.65
2023-02-07T01:38:00.909Z,96.06
2023-02-07T01:39:02.216Z,96.29
2023-02-07T01:40:03.489Z,95.57
2023-02-07T01:41:05.044Z,95.81
2023-02-07T01:42:06.403Z,96.14
2023-02-07T01:43:15.395Z,95.85
2023-02-07T01:44:22.259Z,96.06
2023-02-07T01:45:29.256Z,95.93
2023-02-07T01:46:31.607Z,95.98
2023-02-07T01:47:33.583Z,96.16
2023-02-07T01:48:36.901Z,97.11
2023-02-07T01:49:38.484Z,97.21
2023-02-07T01:50:41.316Z,96.45
2023-02-07T01:51:45.483Z,96.07
2023-02-07T01:52:46.852Z,96.25
2023-02-07T01:53:48.576Z,96.26
2023-02-07T01:54:50.872Z,95.58
2023-02-07T01:55:55.340Z,95.05
2023-02-07T01:56:58.173Z,96.08
2023-02-07T01:58:01.367Z,95.63
2023-02-07T01:59:04.195Z,95.35
2023-02-07T02:00:05.859Z,95.12
2023-02-07T02:01:18.730Z,95.26
2023-02-07T02:02:21.429Z,95.29
2023-02-07T02:03:22.836Z,95.26
2023-02-07T02:04:24.100Z,95.36
2023-02-07T02:05:25.560Z,95.26
2023-02-07T02:06:27.926Z,94.76
2023-02-07T02:07:29.791Z,94.83
2023-02-07T02:08:31.009Z,93.81
2023-02-07T02:09:32.380Z,93.89
2023-02-07T02:10:39.502Z,94.54
2023-02-07T02:12:00.014Z,95.25
2023-02-07T02:13:01.201Z,95.43
2023-02-07T02:14:02.476Z,95.63
2023-02-07T02:15:21.999Z,95.10
2023-02-07T02:16:25.922Z,95.01
2023-02-07T02:17:30.056Z,95.53
2023-02-07T02:18:49.618Z,95.95
2023-02-07T02:20:23.236Z,96.05
2023-02-07T02:21:32.926Z,97.13
2023-02-07T02:22:52.432Z,96.49
2023-02-07T02:24:12.027Z,96.73
2023-02-07T02:25:45.927Z,96.59
2023-02-07T02:26:55.220Z,95.48
2023-02-07T02:28:15.279Z,93.35
2023-02-07T02:29:34.885Z,93.19
2023-02-07T02:30:44.910Z,92.66
2023-02-07T02:32:04.719Z,92.51
2023-02-07T02:33:13.881Z,92.58
2023-02-07T02:34:34.922Z,92.62
2023-02-07T02:35:39.180Z,92.09
2023-02-07T02:36:43.619Z,92.44
2023-02-07T02:37:58.183Z,90.98
2023-02-07T02:39:08.546Z,90.95
2023-02-07T02:40:14.988Z,91.70
2023-02-07T02:41:24.727Z,92.09
2023-02-07T02:42:34.390Z,91.47
2023-02-07T02:43:46.568Z,90.77
2023-02-07T02:44:57.371Z,90.79
2023-02-07T02:46:02.176Z,90.97
2023-02-07T02:47:04.375Z,90.34
2023-02-07T02:48:08.614Z,89.85
2023-02-07T02:49:11.867Z,89.61
2023-02-07T02:50:14.841Z,89.96
2023-02-07T02:51:16.100Z,88.92
2023-02-07T02:52:17.880Z,89.25
2023-02-07T02:53:19.104Z,89.75
2023-02-07T02:54:30.800Z,90.38
2023-02-07T02:55:45.591Z,90.21
2023-02-07T02:57:09.761Z,90.01
2023-02-07T02:58:30.465Z,90.34
2023-02-07T02:59:34.836Z,90.85
2023-02-07T03:00:59.723Z,90.90
2023-02-07T03:02:01.112Z,90.98
2023-02-07T03:03:15.997Z,91.53
2023-02-07T03:04:17.373Z,89.94
2023-02-07T03:05:21.320Z,89.89
2023-02-07T03:06:30.545Z,89.93
2023-02-07T03:07:31.765Z,90.57
2023-02-07T03:08:36.016Z,91.14
2023-02-07T03:09:49.259Z,91.48
2023-02-07T03:10:57.260Z,90.15
2023-02-07T03:12:13.581Z,90.17
2023-02-07T03:13:25.115Z,90.26
2023-02-07T03:14:33.823Z,90.94
2023-02-07T03:15:48.916Z,92.11
2023-02-07T03:17:00.954Z,91.90
2023-02-07T03:18:08.611Z,91.03
2023-02-07T03:19:13.863Z,90.80
2023-02-07T03:20:38.771Z,91.28
2023-02-07T03:22:00.232Z,90.18
2023-02-07T03:23:02.660Z,90.59
2023-02-07T03:24:16.000Z,91.99
2023-02-07T03:25:17.776Z,92.07
2023-02-07T03:26:21.991Z,90.99
2023-02-07T03:27:28.636Z,91.52
2023-02-07T03:28:31.322Z,91.42
2023-02-07T03:29:35.469Z,91.93
2023-02-07T03:30:37.792Z,91.51
2023-02-07T03:31:40.991Z,92.32
2023-02-07T03:32:43.796Z,92.44
2023-02-07T03:33:47.378Z,92.96
2023-02-07T03:34:57.928Z,93.00
2023-02-07T03:36:07.067Z,92.23
2023-02-07T03:37:13.886Z,92.44
2023-02-07T03:38:15.369Z,92.80
2023-02-07T03:39:16.832Z,92.47
2023-02-07T03:40:18.782Z,93.43
2023-02-07T03:41:32.941Z,91.24
2023-02-07T03:42:44.022Z,91.30
2023-02-07T03:43:45.932Z,91.83
2023-02-07T03:44:47.927Z,91.41
2023-02-07T03:45:49.209Z,92.25
2023-02-07T03:46:50.704Z,92.32
2023-02-07T03:47:51.916Z,92.72
2023-02-07T03:48:53.156Z,92.30
2023-02-07T03:49:54.510Z,92.17
2023-02-07T03:50:55.711Z,91.92
2023-02-07T03:51:56.947Z,92.35
2023-02-07T03:52:58.186Z,92.75
2023-02-07T03:53:59.503Z,92.60
2023-02-07T03:55:00.756Z,92.71
2023-02-07T03:56:01.996Z,92.25
2023-02-07T03:57:03.302Z,92.53
2023-02-07T03:58:04.543Z,92.96
2023-02-07T03:59:05.914Z,93.38
2023-02-07T04:00:07.959Z,93.46
2023-02-07T04:01:15.323Z,93.91
2023-02-07T04:02:16.586Z,93.56
2023-02-07T04:03:17.863Z,93.70
2023-02-07T04:04:19.356Z,94.31
2023-02-07T04:05:20.716Z,94.03
2023-02-07T04:06:22.291Z,94.72
2023-02-07T04:07:23.549Z,95.02
2023-02-07T04:08:24.745Z,94.55
2023-02-07T04:09:25.996Z,94.58
2023-02-07T04:10:27.203Z,94.34
2023-02-07T04:11:28.413Z,94.49
2023-02-07T04:12:29.642Z,94.36
2023-02-07T04:13:30.932Z,94.44
2023-02-07T04:14:32.456Z,94.61
2023-02-07T04:15:33.691Z,94.83
2023-02-07T04:16:35.015Z,94.78
2023-02-07T04:17:36.348Z,94.59
2023-02-07T04:18:37.532Z,94.97
2023-02-07T04:19:38.792Z,94.90
2023-02-07T04:20:40.035Z,95.50
2023-02-07T04:21:41.376Z,95.60
2023-02-07T04:22:42.572Z,95.72
2023-02-07T04:23:43.835Z,95.71
2023-02-07T04:24:45.071Z,95.68
2023-02-07T04:25:46.307Z,95.46
2023-02-07T04:26:49.101Z,95.82
2023-02-07T04:27:50.379Z,95.70
2023-02-07T04:28:51.626Z,95.79
2023-02-07T04:29:52.842Z,95.82
2023-02-07T04:30:54.127Z,95.78
2023-02-07T04:31:57.351Z,95.94
2023-02-07T04:32:59.871Z,96.15
2023-02-07T04:34:01.083Z,96.20
2023-02-07T04:35:02.307Z,96.76
2023-02-07T04:36:04.261Z,96.72
2023-02-07T04:37:05.476Z,96.73
2023-02-07T04:38:06.700Z,96.54
2023-02-07T04:39:07.900Z,96.47
2023-02-07T04:40:09.472Z,96.36
2023-02-07T04:41:10.813Z,96.35
2023-02-07T04:42:12.303Z,97.00
2023-02-07T04:43:13.531Z,97.37
2023-02-07T04:44:14.783Z,97.10
2023-02-07T04:45:16.084Z,97.12
2023-02-07T04:46:17.306Z,97.28
2023-02-07T04:47:18.542Z,97.31
2023-02-07T04:48:19.965Z,96.87
2023-02-07T04:49:21.266Z,96.31
2023-02-07T04:50:22.493Z,96.55
2023-02-07T04:51:24.326Z,96.24
2023-02-07T04:52:25.533Z,96.48
2023-02-07T04:53:26.734Z,96.36
2023-02-07T04:54:27.991Z,96.14
2023-02-07T04:55:29.247Z,96.02
2023-02-07T04:56:30.681Z,95.66
2023-02-07T04:57:31.963Z,94.88
2023-02-07T04:58:33.594Z,95.35
2023-02-07T04:59:34.853Z,95.46
2023-02-07T05:00:36.129Z,95.93
2023-02-07T05:01:37.350Z,95.49
2023-02-07T05:02:38.545Z,95.27
2023-02-07T05:03:39.813Z,95.24
2023-02-07T05:04:41.077Z,95.58
2023-02-07T05:05:43.136Z,95.70
2023-02-07T05:06:44.364Z,95.57
2023-02-07T05:07:45.610Z,95.69
2023-02-07T05:08:46.894Z,96.11
2023-02-07T05:09:48.084Z,96.00
2023-02-07T05:10:53.764Z,95.93
2023-02-07T05:11:55.023Z,96.00
2023-02-07T05:12:56.259Z,96.06
2023-02-07T05:13:57.520Z,96.40
2023-02-07T05:14:59.392Z,96.68
2023-02-07T05:16:03.784Z,97.00
2023-02-07T05:17:05.063Z,97.05
2023-02-07T05:18:06.316Z,97.10
2023-02-07T05:19:07.517Z,97.00
2023-02-07T05:20:08.963Z,96.95
2023-02-07T05:21:10.193Z,97.12
2023-02-07T05:22:11.384Z,97.22
2023-02-07T05:23:12.767Z,96.76
2023-02-07T05:24:14.083Z,96.19
2023-02-07T05:25:15.583Z,96.54
2023-02-07T05:26:16.844Z,96.65
2023-02-07T05:27:18.094Z,96.29
2023-02-07T05:28:19.415Z,96.39
2023-02-07T05:29:20.670Z,96.66
2023-02-07T05:30:22.026Z,96.53
2023-02-07T05:31:23.420Z,96.35
2023-02-07T05:32:24.832Z,96.17
2023-02-07T05:33:26.076Z,96.48
2023-02-07T05:34:27.284Z,96.87
2023-02-07T05:35:28.725Z,96.96
2023-02-07T05:36:30.005Z,97.54
2023-02-07T05:37:31.275Z,97.78
2023-02-07T05:38:32.570Z,97.29
2023-02-07T05:39:33.783Z,96.96
2023-02-07T05:40:36.014Z,97.27
2023-02-07T05:41:37.503Z,97.75
2023-02-07T05:42:39.401Z,97.56
2023-02-07T05:43:40.687Z,97.73
2023-02-07T05:44:41.914Z,97.72
2023-02-07T05:45:43.115Z,97.59
2023-02-07T05:46:44.432Z,97.38
2023-02-07T05:47:45.630Z,97.71
2023-02-07T05:48:46.828Z,97.56
2023-02-07T05:49:48.093Z,98.15
2023-02-07T05:50:49.355Z,98.41
2023-02-07T05:51:50.879Z,98.36
2023-02-07T05:52:52.379Z,98.10
2023-02-07T05:53:53.625Z,98.17
2023-02-07T05:54:54.868Z,98.01
2023-02-07T05:55:56.345Z,97.67
2023-02-07T05:56:57.676Z,97.66
2023-02-07T05:57:59.027Z,97.73
2023-02-07T05:59:00.390Z,98.02
2023-02-07T06:00:01.863Z,97.41
2023-02-07T06:01:13.104Z,97.64
2023-02-07T06:02:14.378Z,97.63
2023-02-07T06:03:15.801Z,97.56
2023-02-07T06:04:17.136Z,97.89
2023-02-07T06:05:18.867Z,97.93
2023-02-07T06:06:20.216Z,98.14
2023-02-07T06:07:21.467Z,98.18
2023-02-07T06:08:22.710Z,98.44
2023-02-07T06:09:23.971Z,98.62
2023-02-07T06:10:25.264Z,98.64
2023-02-07T06:11:26.480Z,98.66
2023-02-07T06:12:27.752Z,98.49
2023-02-07T06:13:29.099Z,98.56
2023-02-07T06:14:30.304Z,98.33
2023-02-07T06:15:31.576Z,98.43
2023-02-07T06:16:32.785Z,98.63
2023-02-07T06:17:34.007Z,98.48
2023-02-07T06:18:35.200Z,98.54
2023-02-07T06:19:36.449Z,99.05
2023-02-07T06:20:37.634Z,98.84
2023-02-07T06:21:46.532Z,98.40
2023-02-07T06:22:48.272Z,98.72
2023-02-07T06:23:49.553Z,98.58
2023-02-07T06:24:50.816Z,98.60
2023-02-07T06:25:53.161Z,98.84
2023-02-07T06:26:54.421Z,98.84
2023-02-07T06:27:55.713Z,98.21
2023-02-07T06:28:56.970Z,98.00
2023-02-07T06:29:58.190Z,97.96
2023-02-07T06:30:59.494Z,97.58
2023-02-07T06:32:00.760Z,97.79
2023-02-07T06:33:01.991Z,97.37
2023-02-07T06:34:03.244Z,97.42
2023-02-07T06:35:05.216Z,97.47
2023-02-07T06:36:06.619Z,97.23
2023-02-07T06:37:08.264Z,97.34
2023-02-07T06:38:09.587Z,97.25
2023-02-07T06:39:11.470Z,97.37
2023-02-07T06:40:12.697Z,97.55
2023-02-07T06:41:13.969Z,97.88
2023-02-07T06:42:15.203Z,97.48
2023-02-07T06:43:16.433Z,97.52
2023-02-07T06:44:17.678Z,97.47
2023-02-07T06:45:18.889Z,97.65
2023-02-07T06:46:20.169Z,97.54
2023-02-07T06:47:21.464Z,97.19
2023-02-07T06:48:22.744Z,97.48
2023-02-07T06:49:23.994Z,97.42
2023-02-07T06:50:25.241Z,97.39
2023-02-07T06:51:26.527Z,97.02
2023-02-07T06:52:27.763Z,97.14
2023-02-07T06:53:29.013Z,96.60
2023-02-07T06:54:30.280Z,96.19
2023-02-07T06:55:32.722Z,96.38
2023-02-07T06:56:33.960Z,96.14
2023-02-07T06:57:35.243Z,96.17
2023-02-07T06:58:36.506Z,95.89
2023-02-07T06:59:37.725Z,95.67
2023-02-07T07:00:38.977Z,95.44
2023-02-07T07:01:40.302Z,95.65
2023-02-07T07:02:41.582Z,95.42
2023-02-07T07:03:42.852Z,95.03
2023-02-07T07:04:44.045Z,94.92
2023-02-07T07:05:45.545Z,95.04
2023-02-07T07:06:46.867Z,95.57
2023-02-07T07:07:48.633Z,95.91
2023-02-07T07:08:49.842Z,95.18
2023-02-07T07:09:51.098Z,95.39
2023-02-07T07:10:52.665Z,95.85
2023-02-07T07:11:53.916Z,95.31
2023-02-07T07:12:55.170Z,96.01
2023-02-07T07:13:56.451Z,95.42
2023-02-07T07:14:57.727Z,95.70
2023-02-07T07:15:59.095Z,95.75
2023-02-07T07:17:00.321Z,96.37
2023-02-07T07:18:02.652Z,96.41
2023-02-07T07:19:03.906Z,96.30
2023-02-07T07:20:05.603Z,95.71
2023-02-07T07:21:06.896Z,95.58
2023-02-07T07:22:08.098Z,95.32
2023-02-07T07:23:09.352Z,95.29
2023-02-07T07:24:10.652Z,95.79
2023-02-07T07:25:12.140Z,95.86
2023-02-07T07:26:13.622Z,95.44
2023-02-07T07:27:14.825Z,95.49
2023-02-07T07:28:16.057Z,95.07
2023-02-07T07:29:18.487Z,94.91
2023-02-07T07:30:19.822Z,95.14
2023-02-07T07:31:21.106Z,94.62
2023-02-07T07:33:43.668Z,95.28
2023-02-07T07:34:44.896Z,95.14
2023-02-07T07:35:46.118Z,95.57
2023-02-07T07:36:47.380Z,95.55
2023-02-07T07:37:48.608Z,95.62
2023-02-07T07:38:51.274Z,95.46
2023-02-07T07:39:53.532Z,95.29
2023-02-07T07:40:54.734Z,95.48
2023-02-07T07:41:56.078Z,94.46
2023-02-07T07:43:22.660Z,93.76
2023-02-07T07:44:24.353Z,92.73
2023-02-07T07:45:25.599Z,91.22
2023-02-07T07:46:26.882Z,90.92
2023-02-07T07:47:28.158Z,90.64
2023-02-07T07:48:29.486Z,90.89
2023-02-07T07:49:30.774Z,90.00
2023-02-07T07:50:32.017Z,90.03
2023-02-07T07:51:33.255Z,90.33
2023-02-07T07:52:34.497Z,90.65
2023-02-07T07:53:36.226Z,90.44
2023-02-07T07:54:37.455Z,91.21
2023-02-07T07:55:38.644Z,91.25
2023-02-07T07:56:39.881Z,90.00
2023-02-07T07:57:41.190Z,89.78
2023-02-07T07:58:42.383Z,90.35
2023-02-07T07:59:43.588Z,90.02
2023-02-07T08:00:44.908Z,88.76
2023-02-07T08:01:46.208Z,88.67
2023-02-07T08:02:47.451Z,88.05
2023-02-07T08:03:48.757Z,88.03
2023-02-07T08:04:50.277Z,88.21
2023-02-07T08:05:51.603Z,88.87
2023-02-07T08:06:52.819Z,87.52
2023-02-07T08:07:54.056Z,87.13
2023-02-07T08:08:55.317Z,85.95
2023-02-07T08:09:56.517Z,86.79
2023-02-07T08:11:01.308Z,86.89
2023-02-07T08:12:02.591Z,87.27
2023-02-07T08:13:04.446Z,88.11
2023-02-07T08:14:05.688Z,87.23
2023-02-07T08:15:07.105Z,86.75
2023-02-07T08:16:08.378Z,86.94
2023-02-07T08:17:09.644Z,86.69
2023-02-07T08:18:10.932Z,87.48
2023-02-07T08:19:12.173Z,87.18
2023-02-07T08:20:13.383Z,86.71
2023-02-07T08:21:14.632Z,86.39
2023-02-07T08:22:15.846Z,85.07
2023-02-07T08:23:17.164Z,85.76
2023-02-07T08:24:18.549Z,86.02
2023-02-07T08:25:19.839Z,84.77
2023-02-07T08:26:21.057Z,83.78
2023-02-07T08:27:22.331Z,84.20
2023-02-07T08:28:23.644Z,84.61
2023-02-07T08:29:24.941Z,85.43
2023-02-07T08:30:26.353Z,85.78
2023-02-07T08:31:27.808Z,86.43
2023-02-07T08:32:29.150Z,86.46
2023-02-07T08:33:30.605Z,84.39
2023-02-07T08:34:31.872Z,83.52
2023-02-07T08:35:33.124Z,84.37
2023-02-07T08:36:34.344Z,84.36
2023-02-07T08:37:35.600Z,85.00
2023-02-07T08:38:37.312Z,84.63
2023-02-07T08:39:38.557Z,84.08
2023-02-07T08:40:40.151Z,83.07
2023-02-07T08:41:41.658Z,82.75
2023-02-07T08:42:42.868Z,82.78
2023-02-07T08:43:44.112Z,82.43
2023-02-07T08:44:45.356Z,80.86
2023-02-07T08:45:48.169Z,79.92
2023-02-07T08:46:49.466Z,80.73
2023-02-07T08:47:50.731Z,80.58
2023-02-07T08:48:51.985Z,81.81
2023-02-07T08:49:53.298Z,82.22
2023-02-07T08:50:54.816Z,79.87
2023-02-07T08:51:56.064Z,80.93
2023-02-07T08:52:57.361Z,80.78
2023-02-07T08:53:58.660Z,78.93
2023-02-07T08:54:59.880Z,79.03
2023-02-07T08:56:01.071Z,79.54
2023-02-07T08:57:02.343Z,78.24
2023-02-07T08:58:03.605Z,79.06
2023-02-07T08:59:04.853Z,78.70
2023-02-07T09:00:06.742Z,79.15
2023-02-07T09:01:08.015Z,79.35
2023-02-07T09:02:10.822Z,79.32
2023-02-07T09:03:13.638Z,79.10
2023-02-07T09:04:15.645Z,79.26
2023-02-07T09:05:17.012Z,80.25
2023-02-07T09:06:18.242Z,79.26
2023-02-07T09:07:19.485Z,77.88
2023-02-07T09:08:20.712Z,78.08
2023-02-07T09:09:21.976Z,79.48
2023-02-07T09:10:23.182Z,78.74
2023-02-07T09:11:24.480Z,78.38
2023-02-07T09:12:26.138Z,77.55
2023-02-07T09:13:27.717Z,78.33
2023-02-07T09:14:28.966Z,79.18
2023-02-07T09:15:30.598Z,79.19
2023-02-07T09:16:31.882Z,79.37
2023-02-07T09:17:33.196Z,78.78
2023-02-07T09:18:34.478Z,78.58
2023-02-07T09:19:36.340Z,78.70
2023-02-07T09:20:38.024Z,78.05
2023-02-07T09:21:40.482Z,78.00
2023-02-07T09:22:41.829Z,78.66
2023-02-07T09:23:43.156Z,79.16
2023-02-07T09:24:44.398Z,78.54
2023-02-07T09:25:46.601Z,79.18
2023-02-07T09:26:47.805Z,78.68
2023-02-07T09:27:49.723Z,77.37
2023-02-07T09:28:50.972Z,78.67
2023-02-07T09:29:52.248Z,79.92
2023-02-07T09:30:53.827Z,79.08
2023-02-07T09:31:55.416Z,77.12
2023-02-07T09:32:57.152Z,76.08
2023-02-07T09:33:58.415Z,77.85
2023-02-07T09:34:59.667Z,76.82
2023-02-07T09:36:00.918Z,77.89
2023-02-07T09:37:02.113Z,76.68
2023-02-07T09:38:03.466Z,77.50
2023-02-07T09:39:05.745Z,76.90
2023-02-07T09:40:07.227Z,78.09
2023-02-07T09:41:16.200Z,77.54
2023-02-07T09:42:17.377Z,78.03
2023-02-07T09:43:25.537Z,77.87
2023-02-07T09:44:47.526Z,77.72
2023-02-07T09:45:53.930Z,77.87
2023-02-07T09:46:59.840Z,77.76
2023-02-07T09:48:06.061Z,77.18
2023-02-07T09:49:26.086Z,76.32
2023-02-07T09:50:30.517Z,76.23
2023-02-07T09:51:32.914Z,76.91
2023-02-07T09:52:37.096Z,76.60
2023-02-07T09:53:42.836Z,75.19
2023-02-07T09:54:46.599Z,76.66
2023-02-07T09:55:53.861Z,76.66
2023-02-07T09:56:57.298Z,75.43
2023-02-07T09:58:02.007Z,75.24
2023-02-07T09:59:15.637Z,74.99
2023-02-07T10:00:28.133Z,74.81
2023-02-07T10:01:32.502Z,75.56
2023-02-07T10:02:41.533Z,75.51
2023-02-07T10:03:46.139Z,76.07
2023-02-07T10:04:48.452Z,74.60
2023-02-07T10:06:09.191Z,75.04
2023-02-07T10:07:18.447Z,74.67
2023-02-07T10:08:19.777Z,73.62
2023-02-07T10:09:27.521Z,74.66
2023-02-07T10:10:37.898Z,75.23
2023-02-07T10:11:48.270Z,75.31
2023-02-07T10:13:00.131Z,75.41
2023-02-07T10:14:15.270Z,76.67
2023-02-07T10:15:19.560Z,75.11
2023-02-07T10:16:45.798Z,75.74
2023-02-07T10:17:52.149Z,76.06
2023-02-07T10:19:07.257Z,75.05
2023-02-07T10:20:27.545Z,74.59
2023-02-07T10:21:35.869Z,73.61
2023-02-07T10:22:54.857Z,74.33
2023-02-07T10:23:56.079Z,75.05
2023-02-07T10:25:10.951Z,74.02
2023-02-07T10:26:19.460Z,74.13
2023-02-07T10:27:30.436Z,73.50
2023-02-07T10:28:48.963Z,74.82
2023-02-07T10:30:03.280Z,73.63
2023-02-07T10:31:10.290Z,72.52
2023-02-07T10:32:18.715Z,72.69
2023-02-07T10:33:21.758Z,74.35
2023-02-07T10:34:24.317Z,72.98
2023-02-07T10:35:30.304Z,73.40
2023-02-07T10:36:33.276Z,72.86
2023-02-07T10:37:37.268Z,73.72
2023-02-07T10:38:43.864Z,72.54
2023-02-07T10:40:05.345Z,73.24
2023-02-07T10:41:11.073Z,73.24
2023-02-07T10:42:14.787Z,73.25
2023-02-07T10:43:29.573Z,73.32
2023-02-07T10:44:30.933Z,73.39
2023-02-07T10:45:32.535Z,73.22
2023-02-07T10:46:34.720Z,73.11
2023-02-07T10:47:38.717Z,73.70
2023-02-07T10:48:39.966Z,74.19
2023-02-07T10:49:41.379Z,73.48
2023-02-07T10:50:43.376Z,73.96
2023-02-07T10:51:45.488Z,73.01
2023-02-07T10:52:52.253Z,74.35
2023-02-07T10:54:05.564Z,72.74
2023-02-07T10:55:09.084Z,71.33
2023-02-07T10:56:17.967Z,72.47
2023-02-07T10:57:19.903Z,71.81
2023-02-07T10:58:24.544Z,73.33
2023-02-07T10:59:34.923Z,72.61
2023-02-07T11:00:37.106Z,73.26
2023-02-07T11:01:39.399Z,74.14
2023-02-07T11:02:47.044Z,73.03
2023-02-07T11:03:48.554Z,73.22
2023-02-07T11:04:49.887Z,72.62
2023-02-07T11:05:52.960Z,72.73
2023-02-07T11:07:01.617Z,73.87
2023-02-07T11:08:16.964Z,73.34
2023-02-07T11:09:22.952Z,70.73
2023-02-07T11:10:25.696Z,70.52
2023-02-07T11:11:29.445Z,71.47
2023-02-07T11:12:30.826Z,71.76
2023-02-07T11:13:44.760Z,70.56
2023-02-07T11:15:02.796Z,70.92
2023-02-07T11:16:08.627Z,72.06
2023-02-07T11:17:19.319Z,71.76
2023-02-07T11:18:31.185Z,72.94
2023-02-07T11:19:32.495Z,71.54
2023-02-07T11:20:38.872Z,70.34
2023-02-07T11:21:41.995Z,71.31
2023-02-07T11:22:43.376Z,70.67
2023-02-07T11:23:44.723Z,72.02
2023-02-07T11:24:46.729Z,71.30
2023-02-07T11:25:48.597Z,69.75
2023-02-07T11:26:55.525Z,70.53
2023-02-07T11:27:57.014Z,69.11
2023-02-07T11:29:18.296Z,69.25
2023-02-07T11:30:20.813Z,69.27
2023-02-07T11:31:30.475Z,70.24
2023-02-07T11:32:31.915Z,69.34
2023-02-07T11:33:34.617Z,70.62
2023-02-07T11:34:47.740Z,70.45
2023-02-07T11:36:01.333Z,70.50
2023-02-07T11:37:11.269Z,70.32
2023-02-07T11:38:13.621Z,70.17
2023-02-07T11:39:18.034Z,70.21
2023-02-07T11:40:19.226Z,70.98
2023-02-07T11:41:31.375Z,70.68
2023-02-07T11:42:32.617Z,70.76
2023-02-07T11:43:34.676Z,71.00
2023-02-07T11:44:40.798Z,72.25
2023-02-07T11:45:47.244Z,70.12
2023-02-07T11:46:49.368Z,68.57
2023-02-07T11:47:53.060Z,68.29
2023-02-07T11:48:56.069Z,68.79
2023-02-07T11:50:02.742Z,68.83
2023-02-07T11:51:06.219Z,68.40
2023-02-07T11:52:08.220Z,68.38
2023-02-07T11:53:19.365Z,67.93
2023-02-07T11:54:20.687Z,69.01
2023-02-07T11:55:24.676Z,69.67
2023-02-07T11:56:34.874Z,69.49
2023-02-07T11:57:36.236Z,68.22
2023-02-07T11:58:40.776Z,68.28
2023-02-07T12:00:00.677Z,67.60
2023-02-07T12:01:05.997Z,68.21
2023-02-07T12:02:16.190Z,68.50
2023-02-07T12:03:24.911Z,68.72
2023-02-07T12:04:27.912Z,67.51
2023-02-07T12:05:31.891Z,67.55
2023-02-07T12:06:39.995Z,65.78
2023-02-07T12:07:43.594Z,66.27
2023-02-07T12:08:44.976Z,65.20
2023-02-07T12:09:51.479Z,65.53
2023-02-07T12:10:55.850Z,65.53
2023-02-07T12:12:00.080Z,65.49
2023-02-07T12:13:01.353Z,66.01
2023-02-07T12:14:08.853Z,66.64
2023-02-07T12:15:18.906Z,66.70
2023-02-07T12:16:26.206Z,65.53
2023-02-07T12:17:31.935Z,65.06
2023-02-07T12:18:33.291Z,65.13
2023-02-07T12:19:37.247Z,64.10
2023-02-07T12:20:50.105Z,62.81
2023-02-07T12:21:57.468Z,64.31
2023-02-07T12:23:39.173Z,63.76
2023-02-07T12:24:38.893Z,62.94
2023-02-07T12:25:45.573Z,62.88
2023-02-07T12:26:46.808Z,61.71
2023-02-07T12:27:50.332Z,62.21
2023-02-07T12:29:13.602Z,62.10
2023-02-07T12:30:36.433Z,62.09
2023-02-07T12:31:37.732Z,62.76
2023-02-07T12:32:41.870Z,62.19
2023-02-07T12:33:49.110Z,61.40
2023-02-07T12:34:52.973Z,62.02
2023-02-07T12:36:09.025Z,62.38
2023-02-07T12:37:19.046Z,61.76
2023-02-07T12:38:24.379Z,61.80
2023-02-07T12:39:25.640Z,60.85
2023-02-07T12:40:26.825Z,59.92
2023-02-07T12:41:31.017Z,60.86
2023-02-07T12:42:43.178Z,60.68
2023-02-07T12:44:07.827Z,61.93
2023-02-07T12:45:14.178Z,60.86
2023-02-07T12:46:25.341Z,60.79
2023-02-07T12:47:38.174Z,59.98
2023-02-07T12:48:57.863Z,60.88
2023-02-07T12:50:13.874Z,60.71
2023-02-07T12:51:15.118Z,61.09
2023-02-07T12:52:23.499Z,60.94
2023-02-07T12:53:33.800Z,60.54
2023-02-07T12:54:53.957Z,60.84
2023-02-07T12:56:05.750Z,61.29
2023-02-07T12:57:19.126Z,62.06
2023-02-07T12:58:27.477Z,60.87
2023-02-07T12:59:31.788Z,58.95
2023-02-07T13:00:38.651Z,59.34
2023-02-07T13:01:44.450Z,59.06
2023-02-07T13:02:57.924Z,57.48
2023-02-07T13:04:23.283Z,58.56
2023-02-07T13:05:50.944Z,59.93
2023-02-07T13:06:54.905Z,58.91
2023-02-07T13:07:59.142Z,58.58
2023-02-07T13:09:09.732Z,59.58
2023-02-07T13:10:10.981Z,59.06
2023-02-07T13:11:26.871Z,58.09
2023-02-07T13:12:45.673Z,59.06
2023-02-07T13:13:55.274Z,56.03
2023-02-07T13:14:59.477Z,54.65
2023-02-07T13:16:06.495Z,53.23
2023-02-07T13:17:10.604Z,54.05
2023-02-07T13:18:17.637Z,54.05
2023-02-07T13:19:25.183Z,54.44
2023-02-07T13:20:29.162Z,54.03
2023-02-07T13:21:40.145Z,55.70
2023-02-07T13:22:48.842Z,55.44
2023-02-07T13:23:50.220Z,55.82
2023-02-07T13:24:51.905Z,57.11
2023-02-07T13:25:56.682Z,56.32
2023-02-07T13:27:00.408Z,55.18
2023-02-07T13:28:05.152Z,54.56
2023-02-07T13:29:12.098Z,54.88
2023-02-07T13:30:15.602Z,54.24
2023-02-07T13:31:19.004Z,53.44
2023-02-07T13:32:24.211Z,54.31
2023-02-07T13:33:39.191Z,55.19
2023-02-07T13:34:50.565Z,53.38
2023-02-07T13:35:52.857Z,53.90
2023-02-07T13:36:54.206Z,53.75
2023-02-07T13:38:16.868Z,54.39
2023-02-07T13:39:33.180Z,52.87
2023-02-07T13:40:40.935Z,52.80
2023-02-07T13:41:48.452Z,51.89
2023-02-07T13:42:56.520Z,53.18
2023-02-07T13:44:08.957Z,52.90
2023-02-07T13:45:19.821Z,53.05
2023-02-07T13:46:39.387Z,52.56
2023-02-07T13:47:46.111Z,52.06
2023-02-07T13:48:57.665Z,52.74
2023-02-07T13:50:09.179Z,53.26